Time;durP1;ratioP1;P1;durP2;ratioP2;P2;SDS_P1;SDS_P2;PMS_P1;PMS_P2;Temp;Humidity;BMP_temperature;BMP_pressure;BME280_temperature;BME280_humidity;BME280_pressure;Samples;Min_cycle;Max_cycle;Signal;HPM_P1;HPM_P2
2021/08/30 00:00:27;;;;;;;;;;;;;;;;;;5023555;28;20380;-72
2021/08/30 00:02:54;;;;;;;;;;;;;;;;;;5028601;28;20395;-71
2021/08/30 00:05:21;;;;;;;;;;;;;;;;;;5027169;28;19929;-71
2021/08/30 00:07:48;;;;;;;;;;;;;;;;;;5030782;28;19929;-71
2021/08/30 00:10:17;;;;;;;;;;;;;;;;;;5023049;28;20389;-70
2021/08/30 00:12:44;;;;;;;;;;;;;;;;;;5024889;28;20433;-71
2021/08/30 00:15:11;;;;;;;;;;;;;;;;;;5026247;28;19925;-71
2021/08/30 00:17:38;;;;;;;;;;;;;;;;;;5024167;28;19931;-70
2021/08/30 00:20:05;;;;;;;;;;;;;;;;;;5027437;28;19944;-70
2021/08/30 00:22:32;;;;;;;;;;;;;;;;;;5029415;28;20597;-71
2021/08/30 00:25:00;;;;;;;;;;;;;;;;;;5029384;28;19933;-71
2021/08/30 00:27:27;;;;;;;;;;;;;;;;;;5024343;28;19943;-71
2021/08/30 00:29:55;;;;;;;;;;;;;;;;;;5027867;28;19948;-70
2021/08/30 00:32:22;;;;;;;;;;;;;;;;;;5024591;28;20016;-70
2021/08/30 00:34:49;;;;;;;;;;;;;;;;;;5025897;28;19929;-70
2021/08/30 00:37:16;;;;;;;;;;;;;;;;;;5032974;28;19929;-70
2021/08/30 00:39:43;;;;;;;;;;;;;;;;;;5024647;28;19941;-70
2021/08/30 00:42:10;;;;;;;;;;;;;;;;;;5025425;28;19940;-70
2021/08/30 00:44:37;;;;;;;;;;;;;;;;;;5025746;28;20386;-70
2021/08/30 00:47:04;;;;;;;;;;;;;;;;;;5026575;28;19925;-70
2021/08/30 00:49:31;;;;;;;;;;;;;;;;;;5028221;28;19932;-70
2021/08/30 00:51:58;;;;;;;;;;;;;;;;;;5025561;28;19925;-70
2021/08/30 00:54:25;;;;;;;;;;;;;;;;;;5024924;28;19937;-70
2021/08/30 00:56:52;;;;;;;;;;;;;;;;;;5027694;28;19925;-70
2021/08/30 00:59:19;;;;;;;;;;;;;;;;;;5029635;28;19925;-69
2021/08/30 01:01:46;;;;;;;;;;;;;;;;;;5025605;28;19931;-69
2021/08/30 01:04:12;;;;;;;;;;;;;;;;;;5029295;28;20319;-71
2021/08/30 01:06:39;;;;;;;;;;;;;;;;;;5028003;28;19925;-71
2021/08/30 01:09:06;;;;;;;;;;;;;;;;;;5028073;28;19929;-70
2021/08/30 01:11:33;;;;;;;;;;;;;;;;;;5024850;28;20294;-70
2021/08/30 01:14:00;;;;;;;;;;;;;;;;;;5026674;28;20044;-70
2021/08/30 01:16:27;;;;;;;;;;;;;;;;;;5031308;28;20404;-70
2021/08/30 01:18:54;;;;;;;;;;;;;;;;;;5032023;28;19940;-71
2021/08/30 01:21:21;;;;;;;;;;;;;;;;;;5030459;28;19944;-70
2021/08/30 01:23:48;;;;;;;;;;;;;;;;;;5028249;28;19925;-70
2021/08/30 01:26:15;;;;;;;;;;;;;;;;;;5028649;28;20369;-70
2021/08/30 01:28:42;;;;;;;;;;;;;;;;;;5028575;28;19952;-71
2021/08/30 01:31:09;;;;;;;;;;;;;;;;;;5024933;28;19932;-70
2021/08/30 01:33:36;;;;;;;;;;;;;;;;;;5028277;28;20418;-71
2021/08/30 01:36:03;;;;;;;;;;;;;;;;;;5026248;28;20296;-70
2021/08/30 01:38:30;;;;;;;;;;;;;;;;;;5032098;28;20499;-71
2021/08/30 01:40:57;;;;;;;;;;;;;;;;;;5028865;28;19929;-70
2021/08/30 01:43:24;;;;;;;;;;;;;;;;;;5026307;28;19925;-71
2021/08/30 01:45:51;;;;;;;;;;;;;;;;;;5028397;28;19940;-71
2021/08/30 01:48:18;;;;;;;;;;;;;;;;;;5030088;28;20305;-73
2021/08/30 01:50:45;;;;;;;;;;;;;;;;;;5027072;28;19995;-70
2021/08/30 01:53:12;;;;;;;;;;;;;;;;;;5028256;28;19932;-70
2021/08/30 01:55:43;;;;;;;;;;;;;;;;;;5031149;28;19925;-70
2021/08/30 02:00:54;;;;;;;;;;;;;;;;;;5028866;28;19932;-69
2021/08/30 02:03:21;;;;;;;;;;;;;;;;;;5026448;28;19935;-70
2021/08/30 02:05:48;;;;;;;;;;;;;;;;;;5032599;28;20370;-71
2021/08/30 02:08:15;;;;;;;;;;;;;;;;;;5031113;28;19972;-70
2021/08/30 02:10:42;;;;;;;;;;;;;;;;;;5026909;28;19925;-70
2021/08/30 02:13:09;;;;;;;;;;;;;;;;;;5022454;28;20380;-71
2021/08/30 02:15:36;;;;;;;;;;;;;;;;;;5025123;28;20401;-70
2021/08/30 02:18:03;;;;;;;;;;;;;;;;;;5023451;28;19925;-71
2021/08/30 02:20:30;;;;;;;;;;;;;;;;;;5025842;28;19940;-70
2021/08/30 02:22:57;;;;;;;;;;;;;;;;;;5025884;28;19931;-71
2021/08/30 02:25:24;;;;;;;;;;;;;;;;;;5030351;28;19925;-70
2021/08/30 02:27:51;;;;;;;;;;;;;;;;;;5032765;28;19929;-71
2021/08/30 02:30:18;;;;;;;;;;;;;;;;;;5031967;28;19940;-70
2021/08/30 02:32:45;;;;;;;;;;;;;;;;;;5026699;28;20016;-70
2021/08/30 02:35:12;;;;;;;;;;;;;;;;;;5027952;28;20396;-71
2021/08/30 02:37:39;;;;;;;;;;;;;;;;;;5029899;28;19925;-71
2021/08/30 02:40:06;;;;;;;;;;;;;;;;;;5028566;28;20025;-70
2021/08/30 02:42:33;;;;;;;;;;;;;;;;;;5028565;28;20227;-70
2021/08/30 02:45:00;;;;;;;;;;;;;;;;;;5026543;28;19955;-70
2021/08/30 02:47:27;;;;;;;;;;;;;;;;;;5029587;28;19936;-71
2021/08/30 02:49:54;;;;;;;;;;;;;;;;;;5029337;28;19944;-70
2021/08/30 02:52:20;;;;;;;;;;;;;;;;;;5026055;28;20304;-70
2021/08/30 02:54:47;;;;;;;;;;;;;;;;;;5031276;28;19929;-70
2021/08/30 02:57:14;;;;;;;;;;;;;;;;;;5028556;28;19932;-70
2021/08/30 02:59:41;;;;;;;;;;;;;;;;;;5026329;28;19925;-70
2021/08/30 03:02:08;;;;;;;;;;;;;;;;;;5026424;28;20411;-70
2021/08/30 03:04:35;;;;;;;;;;;;;;;;;;5030718;28;20198;-70
2021/08/30 03:07:02;;;;;;;;;;;;;;;;;;5030672;28;19925;-71
2021/08/30 03:09:29;;;;;;;;;;;;;;;;;;5026428;28;20251;-70
2021/08/30 03:11:56;;;;;;;;;;;;;;;;;;5025976;28;20191;-70
2021/08/30 03:14:23;;;;;;;;;;;;;;;;;;5024047;28;20024;-70
2021/08/30 03:16:51;;;;;;;;;;;;;;;;;;5027736;28;19929;-70
2021/08/30 03:19:18;;;;;;;;;;;;;;;;;;5028749;28;19954;-70
2021/08/30 03:21:46;;;;;;;;;;;;;;;;;;5027722;28;19925;-70
2021/08/30 03:24:13;;;;;;;;;;;;;;;;;;5028518;28;19929;-71
2021/08/30 03:26:40;;;;;;;;;;;;;;;;;;5030270;28;19924;-71
2021/08/30 03:29:06;;;;;;;;;;;;;;;;;;5025750;28;20400;-70
2021/08/30 03:31:34;;;;;;;;;;;;;;;;;;5028362;28;19925;-69
2021/08/30 03:34:00;;;;;;;;;;;;;;;;;;5021818;28;19952;-71
2021/08/30 03:36:27;;;;;;;;;;;;;;;;;;5027114;28;19929;-71
2021/08/30 03:38:54;;;;;;;;;;;;;;;;;;5027450;28;20008;-71
2021/08/30 03:41:21;;;;;;;;;;;;;;;;;;5029590;28;19935;-70
2021/08/30 03:43:48;;;;;;;;;;;;;;;;;;5012789;22;20228;-67
2021/08/30 03:46:15;;;;;;;;;;;;;;;;;;4988167;28;19925;-67
2021/08/30 03:48:42;;;;;;;;;;;;;;;;;;4987735;28;19926;-67
2021/08/30 03:51:09;;;;;;;;;;;;;;;;;;4993812;28;19929;-67
2021/08/30 03:53:36;;;;;;;;;;;;;;;;;;4987535;28;20412;-67
2021/08/30 03:56:03;;;;;;;;;;;;;;;;;;4987507;28;20066;-66
2021/08/30 03:58:30;;;;;;;;;;;;;;;;;;4987853;28;19925;-66
2021/08/30 04:01:00;;;;;;;;;;;;;;;;;;4984163;28;20210;-66
2021/08/30 04:03:27;;;;;;;;;;;;;;;;;;4978392;28;19930;-66
2021/08/30 04:05:54;;;;;;;;;;;;;;;;;;4976939;28;19937;-66
2021/08/30 04:08:21;;;;;;;;;;;;;;;;;;4985826;28;20021;-65
2021/08/30 04:10:48;;;;;;;;;;;;;;;;;;4986885;28;19930;-66
2021/08/30 04:13:15;;;;;;;;;;;;;;;;;;4980035;28;20109;-66
2021/08/30 04:15:42;;;;;;;;;;;;;;;;;;4983398;28;19927;-67
2021/08/30 04:18:09;;;;;;;;;;;;;;;;;;4980985;28;19926;-67
2021/08/30 04:20:36;;;;;;;;;;;;;;;;;;4985374;28;20061;-66
2021/08/30 04:23:03;;;;;;;;;;;;;;;;;;4983880;28;20303;-66
2021/08/30 04:25:30;;;;;;;;;;;;;;;;;;4989540;28;20533;-67
2021/08/30 04:27:57;;;;;;;;;;;;;;;;;;4982140;28;20747;-67
2021/08/30 04:30:24;;;;;;;;;;;;;;;;;;4977676;28;19988;-66
2021/08/30 04:32:54;;;;;;;;;;;;;;;;;;4985493;28;19937;-66
2021/08/30 04:35:21;;;;;;;;;;;;;;;;;;4983351;28;19930;-67
2021/08/30 04:37:48;;;;;;;;;;;;;;;;;;4983790;28;19940;-67
2021/08/30 04:40:15;;;;;;;;;;;;;;;;;;4983961;28;19925;-66
2021/08/30 04:42:42;;;;;;;;;;;;;;;;;;4981764;28;20302;-66
2021/08/30 04:45:09;;;;;;;;;;;;;;;;;;4986258;28;19937;-67
2021/08/30 04:47:36;;;;;;;;;;;;;;;;;;4985606;28;20279;-67
2021/08/30 04:50:03;;;;;;;;;;;;;;;;;;4990653;28;20029;-66
2021/08/30 04:52:29;;;;;;;;;;;;;;;;;;4985510;28;19992;-67
2021/08/30 04:54:56;;;;;;;;;;;;;;;;;;4986275;28;20379;-66
2021/08/30 04:57:23;;;;;;;;;;;;;;;;;;4984180;28;19926;-67
2021/08/30 04:59:50;;;;;;;;;;;;;;;;;;4989599;28;19933;-67
2021/08/30 05:02:17;;;;;;;;;;;;;;;;;;4983395;28;19934;-67
2021/08/30 05:04:44;;;;;;;;;;;;;;;;;;4988322;28;20417;-67
2021/08/30 05:07:11;;;;;;;;;;;;;;;;;;4987234;28;19926;-67
2021/08/30 05:09:38;;;;;;;;;;;;;;;;;;4991185;28;19936;-67
2021/08/30 05:12:05;;;;;;;;;;;;;;;;;;4987980;28;20318;-67
2021/08/30 05:14:34;;;;;;;;;;;;;;;;;;4986474;28;19944;-66
2021/08/30 05:17:01;;;;;;;;;;;;;;;;;;4984994;28;20386;-67
2021/08/30 05:19:28;;;;;;;;;;;;;;;;;;4987108;28;20093;-66
2021/08/30 05:21:55;;;;;;;;;;;;;;;;;;4986496;28;19944;-66
2021/08/30 05:24:21;;;;;;;;;;;;;;;;;;4987176;28;19926;-66
2021/08/30 05:26:48;;;;;;;;;;;;;;;;;;4985527;28;19929;-67
2021/08/30 05:29:15;;;;;;;;;;;;;;;;;;4985204;28;20394;-66
2021/08/30 05:31:43;;;;;;;;;;;;;;;;;;4983429;28;21434;-67
2021/08/30 05:34:10;;;;;;;;;;;;;;;;;;4990951;28;19926;-67
2021/08/30 05:36:43;;;;;;;;;;;;;;;;;;4988757;28;19965;-67
2021/08/30 05:39:10;;;;;;;;;;;;;;;;;;4988960;28;19992;-67
2021/08/30 05:41:37;;;;;;;;;;;;;;;;;;4989594;28;19933;-66
2021/08/30 05:44:04;;;;;;;;;;;;;;;;;;4993003;28;19937;-66
2021/08/30 05:46:31;;;;;;;;;;;;;;;;;;4988326;28;19926;-66
2021/08/30 05:48:58;;;;;;;;;;;;;;;;;;4983728;28;19937;-66
2021/08/30 05:51:25;;;;;;;;;;;;;;;;;;4988218;28;21126;-66
2021/08/30 05:53:51;;;;;;;;;;;;;;;;;;4983483;28;19936;-67
2021/08/30 05:56:19;;;;;;;;;;;;;;;;;;4984839;28;19933;-67
2021/08/30 05:58:45;;;;;;;;;;;;;;;;;;4987478;28;20305;-67
2021/08/30 06:01:12;;;;;;;;;;;;;;;;;;4990551;28;19929;-65
2021/08/30 06:03:39;;;;;;;;;;;;;;;;;;4985566;28;19941;-66
2021/08/30 06:06:06;;;;;;;;;;;;;;;;;;4985426;28;20293;-65
2021/08/30 06:08:33;;;;;;;;;;;;;;;;;;4983308;28;19934;-65
2021/08/30 06:11:00;;;;;;;;;;;;;;;;;;4988034;28;20321;-66
2021/08/30 06:13:27;;;;;;;;;;;;;;;;;;4981693;28;19934;-65
2021/08/30 06:15:54;;;;;;;;;;;;;;;;;;4986581;28;20017;-67
2021/08/30 06:18:21;;;;;;;;;;;;;;;;;;4984026;28;19940;-65
2021/08/30 06:20:48;;;;;;;;;;;;;;;;;;4983360;28;20008;-65
2021/08/30 06:23:15;;;;;;;;;;;;;;;;;;4982639;28;19934;-67
2021/08/30 06:25:42;;;;;;;;;;;;;;;;;;4973207;28;19933;-67
2021/08/30 06:28:10;;;;;;;;;;;;;;;;;;4976687;28;19950;-66
2021/08/30 06:30:36;;;;;;;;;;;;;;;;;;4979939;28;19928;-67
2021/08/30 06:33:03;;;;;;;;;;;;;;;;;;4980295;28;19929;-66
2021/08/30 06:35:30;;;;;;;;;;;;;;;;;;4976118;28;20516;-67
2021/08/30 06:37:58;;;;;;;;;;;;;;;;;;4987374;28;19965;-66
2021/08/30 06:40:25;;;;;;;;;;;;;;;;;;4972850;28;20748;-65
2021/08/30 06:42:52;;;;;;;;;;;;;;;;;;4980248;28;20412;-65
2021/08/30 06:45:22;;;;;;;;;;;;;;;;;;4988877;28;19925;-66
2021/08/30 06:47:49;;;;;;;;;;;;;;;;;;4986114;28;19926;-65
2021/08/30 06:50:16;;;;;;;;;;;;;;;;;;4983402;28;19932;-65
2021/08/30 06:52:43;;;;;;;;;;;;;;;;;;4979378;28;19927;-65
2021/08/30 06:55:10;;;;;;;;;;;;;;;;;;4980079;28;20025;-67
2021/08/30 06:57:37;;;;;;;;;;;;;;;;;;4981903;28;19925;-67
2021/08/30 07:00:04;;;;;;;;;;;;;;;;;;4982905;28;19954;-65
2021/08/30 07:02:31;;;;;;;;;;;;;;;;;;4982424;28;19926;-65
2021/08/30 07:04:58;;;;;;;;;;;;;;;;;;4984837;28;19936;-66
2021/08/30 07:07:25;;;;;;;;;;;;;;;;;;4984793;28;20454;-65
2021/08/30 07:09:52;;;;;;;;;;;;;;;;;;4981599;28;19934;-66
2021/08/30 07:12:19;;;;;;;;;;;;;;;;;;4984202;28;19933;-66
2021/08/30 07:14:49;;;;;;;;;;;;;;;;;;4983452;28;19934;-66
2021/08/30 07:17:16;;;;;;;;;;;;;;;;;;4983337;28;20061;-67
2021/08/30 07:19:43;;;;;;;;;;;;;;;;;;4983763;28;20083;-67
2021/08/30 07:22:10;;;;;;;;;;;;;;;;;;4980623;28;19938;-67
2021/08/30 07:24:37;;;;;;;;;;;;;;;;;;4982519;28;19926;-65
2021/08/30 07:27:04;;;;;;;;;;;;;;;;;;4981820;28;20428;-65
2021/08/30 07:29:31;;;;;;;;;;;;;;;;;;4981867;28;19933;-64
2021/08/30 07:31:58;;;;;;;;;;;;;;;;;;4987809;28;19926;-66
2021/08/30 07:34:25;;;;;;;;;;;;;;;;;;4984503;28;19932;-66
2021/08/30 07:36:52;;;;;;;;;;;;;;;;;;4984224;28;20020;-65
2021/08/30 07:39:19;;;;;;;;;;;;;;;;;;4983973;28;20016;-67
2021/08/30 07:41:46;;;;;;;;;;;;;;;;;;4987267;28;19933;-66
2021/08/30 07:44:13;;;;;;;;;;;;;;;;;;4986594;28;19961;-67
2021/08/30 07:46:40;;;;;;;;;;;;;;;;;;4988051;28;19964;-67
2021/08/30 07:49:07;;;;;;;;;;;;;;;;;;4980086;28;20309;-67
2021/08/30 07:51:34;;;;;;;;;;;;;;;;;;4979642;28;19930;-66
2021/08/30 07:54:01;;;;;;;;;;;;;;;;;;4981422;28;19926;-67
2021/08/30 07:56:28;;;;;;;;;;;;;;;;;;4984682;28;19937;-66
2021/08/30 07:58:55;;;;;;;;;;;;;;;;;;4986861;28;19929;-65
2021/08/30 08:01:22;;;;;;;;;;;;;;;;;;4982421;28;20271;-65
2021/08/30 08:03:49;;;;;;;;;;;;;;;;;;4985162;28;19925;-66
2021/08/30 08:06:17;;;;;;;;;;;;;;;;;;4981100;28;19934;-66
2021/08/30 08:08:44;;;;;;;;;;;;;;;;;;4980368;28;19934;-66
2021/08/30 08:11:12;;;;;;;;;;;;;;;;;;4984005;28;19925;-67
2021/08/30 08:13:39;;;;;;;;;;;;;;;;;;4986558;28;19933;-67
2021/08/30 08:16:06;;;;;;;;;;;;;;;;;;4981851;28;20282;-67
2021/08/30 08:18:33;;;;;;;;;;;;;;;;;;4982321;28;19933;-66
2021/08/30 08:21:00;;;;;;;;;;;;;;;;;;4977923;28;20001;-67
2021/08/30 08:23:27;;;;;;;;;;;;;;;;;;4982249;28;20333;-66
2021/08/30 08:25:54;;;;;;;;;;;;;;;;;;4982074;28;19934;-66
2021/08/30 08:28:21;;;;;;;;;;;;;;;;;;4985938;28;19932;-66
2021/08/30 08:30:48;;;;;;;;;;;;;;;;;;4986855;28;19933;-66
2021/08/30 08:33:15;;;;;;;;;;;;;;;;;;4982682;28;19932;-65
2021/08/30 08:35:42;;;;;;;;;;;;;;;;;;4985906;28;19932;-65
2021/08/30 08:38:09;;;;;;;;;;;;;;;;;;4984256;28;20250;-66
2021/08/30 08:40:36;;;;;;;;;;;;;;;;;;4985002;28;19926;-66
2021/08/30 08:43:03;;;;;;;;;;;;;;;;;;4980155;28;20310;-67
2021/08/30 08:45:30;;;;;;;;;;;;;;;;;;4982870;28;19926;-67
2021/08/30 08:47:57;;;;;;;;;;;;;;;;;;4985267;28;19926;-66
2021/08/30 08:50:26;;;;;;;;;;;;;;;;;;4985243;28;19930;-67
2021/08/30 08:52:53;;;;;;;;;;;;;;;;;;4974818;28;20440;-67
2021/08/30 08:55:20;;;;;;;;;;;;;;;;;;4985305;28;19929;-66
2021/08/30 08:57:47;;;;;;;;;;;;;;;;;;4986638;28;20394;-67
2021/08/30 09:00:14;;;;;;;;;;;;;;;;;;4984178;28;19926;-65
2021/08/30 09:02:41;;;;;;;;;;;;;;;;;;4985465;28;20350;-67
2021/08/30 09:05:08;;;;;;;;;;;;;;;;;;4984577;28;20337;-66
2021/08/30 09:07:37;;;;;;;;;;;;;;;;;;4986951;28;19937;-67
2021/08/30 09:10:04;;;;;;;;;;;;;;;;;;4987966;28;20357;-66
2021/08/30 09:12:31;;;;;;;;;;;;;;;;;;4982650;28;19929;-66
2021/08/30 09:14:58;;;;;;;;;;;;;;;;;;4985139;28;20554;-66
2021/08/30 09:17:25;;;;;;;;;;;;;;;;;;4986148;28;20449;-66
2021/08/30 09:19:52;;;;;;;;;;;;;;;;;;4987202;28;19933;-66
2021/08/30 09:22:18;;;;;;;;;;;;;;;;;;4983550;28;19932;-66
2021/08/30 09:24:46;;;;;;;;;;;;;;;;;;4987274;28;19926;-66
2021/08/30 09:27:13;;;;;;;;;;;;;;;;;;4983739;28;20005;-66
2021/08/30 09:29:40;;;;;;;;;;;;;;;;;;4985065;28;19941;-66
2021/08/30 09:32:07;;;;;;;;;;;;;;;;;;4983037;28;20404;-66
2021/08/30 09:34:34;;;;;;;;;;;;;;;;;;4988406;28;19925;-65
2021/08/30 09:37:01;;;;;;;;;;;;;;;;;;4989860;28;20309;-66
2021/08/30 09:39:28;;;;;;;;;;;;;;;;;;4986939;28;19939;-65
2021/08/30 09:44:23;;;;;;;;;;;;;;;;;;5019058;28;19952;-69
2021/08/30 09:46:50;;;;;;;;;;;;;;;;;;5014004;28;19932;-68
2021/08/30 09:49:17;;;;;;;;;;;;;;;;;;5016756;28;19929;-68
2021/08/30 09:51:43;;;;;;;;;;;;;;;;;;5014641;28;19934;-68
2021/08/30 09:54:12;;;;;;;;;;;;;;;;;;5013960;28;20024;-68
2021/08/30 09:56:39;;;;;;;;;;;;;;;;;;5014969;28;20028;-69
2021/08/30 09:59:07;;;;;;;;;;;;;;;;;;5015960;28;19933;-68
2021/08/30 10:01:34;;;;;;;;;;;;;;;;;;5017096;28;19932;-68
2021/08/30 10:04:01;;;;;;;;;;;;;;;;;;5016058;28;19929;-69
2021/08/30 10:06:28;;;;;;;;;;;;;;;;;;5014929;28;20016;-68
2021/08/30 10:08:54;;;;;;;;;;;;;;;;;;5014807;28;19925;-68
2021/08/30 10:11:21;;;;;;;;;;;;;;;;;;5007857;28;20441;-70
2021/08/30 10:13:48;;;;;;;;;;;;;;;;;;5011888;28;19988;-71
2021/08/30 10:16:15;;;;;;;;;;;;;;;;;;5010398;28;19925;-69
2021/08/30 10:18:42;;;;;;;;;;;;;;;;;;5009542;28;20004;-68
2021/08/30 10:21:09;;;;;;;;;;;;;;;;;;5009061;28;20385;-69
2021/08/30 10:23:38;;;;;;;;;;;;;;;;;;5006672;28;19932;-68
2021/08/30 10:26:05;;;;;;;;;;;;;;;;;;5010048;28;20366;-69
2021/08/30 10:28:32;;;;;;;;;;;;;;;;;;5006078;28;19933;-71
2021/08/30 10:30:59;;;;;;;;;;;;;;;;;;5007360;28;19929;-68
2021/08/30 10:33:26;;;;;;;;;;;;;;;;;;5008449;28;19929;-68
2021/08/30 10:35:53;;;;;;;;;;;;;;;;;;5009067;28;20364;-69
2021/08/30 10:38:20;;;;;;;;;;;;;;;;;;5006452;28;19926;-71
2021/08/30 10:40:47;;;;;;;;;;;;;;;;;;5008191;28;19936;-68
2021/08/30 10:43:14;;;;;;;;;;;;;;;;;;5007185;28;19940;-71
2021/08/30 10:45:41;;;;;;;;;;;;;;;;;;5005880;28;19944;-67
2021/08/30 10:48:08;;;;;;;;;;;;;;;;;;5008783;28;19929;-70
2021/08/30 10:50:35;;;;;;;;;;;;;;;;;;5007114;28;20389;-68
2021/08/30 10:53:02;;;;;;;;;;;;;;;;;;5006832;28;19925;-67
2021/08/30 10:55:29;;;;;;;;;;;;;;;;;;4997168;28;19926;-68
2021/08/30 10:57:56;;;;;;;;;;;;;;;;;;5005348;28;20050;-67
2021/08/30 11:00:23;;;;;;;;;;;;;;;;;;5007077;28;20383;-69
2021/08/30 11:02:50;;;;;;;;;;;;;;;;;;5009931;28;19936;-73
2021/08/30 11:05:16;;;;;;;;;;;;;;;;;;5007206;28;19925;-70
2021/08/30 11:07:43;;;;;;;;;;;;;;;;;;5004402;28;19929;-69
2021/08/30 11:10:10;;;;;;;;;;;;;;;;;;5007483;28;19926;-70
2021/08/30 11:12:37;;;;;;;;;;;;;;;;;;5007699;28;19933;-69
2021/08/30 11:15:04;;;;;;;;;;;;;;;;;;5011287;28;19961;-68
2021/08/30 11:17:31;;;;;;;;;;;;;;;;;;5006723;28;19932;-70
2021/08/30 11:19:58;;;;;;;;;;;;;;;;;;5010666;28;19984;-68
2021/08/30 11:22:25;;;;;;;;;;;;;;;;;;5005865;28;19925;-67
2021/08/30 11:24:52;;;;;;;;;;;;;;;;;;5009159;28;19925;-69
2021/08/30 11:27:21;;;;;;;;;;;;;;;;;;5007126;28;19932;-68
2021/08/30 11:29:48;;;;;;;;;;;;;;;;;;5004402;28;19964;-68
2021/08/30 11:32:15;;;;;;;;;;;;;;;;;;5008188;28;19925;-69
2021/08/30 11:34:41;;;;;;;;;;;;;;;;;;5008929;28;20012;-70
2021/08/30 11:37:08;;;;;;;;;;;;;;;;;;5003316;28;19932;-68
2021/08/30 11:39:35;;;;;;;;;;;;;;;;;;5005380;28;19925;-70
2021/08/30 11:42:02;;;;;;;;;;;;;;;;;;5008258;28;20600;-68
2021/08/30 11:44:29;;;;;;;;;;;;;;;;;;5008689;28;19932;-68
2021/08/30 11:46:56;;;;;;;;;;;;;;;;;;5007696;28;19925;-69
2021/08/30 11:49:23;;;;;;;;;;;;;;;;;;5006521;28;19976;-67
2021/08/30 11:51:50;;;;;;;;;;;;;;;;;;5005118;28;19932;-68
2021/08/30 11:54:17;;;;;;;;;;;;;;;;;;5009497;28;19929;-69
2021/08/30 11:56:44;;;;;;;;;;;;;;;;;;4999790;28;20514;-68
2021/08/30 11:59:11;;;;;;;;;;;;;;;;;;5006075;28;20024;-69
2021/08/30 12:01:38;;;;;;;;;;;;;;;;;;5006099;28;19937;-68
2021/08/30 12:04:05;;;;;;;;;;;;;;;;;;5007437;28;20020;-68
2021/08/30 12:06:32;;;;;;;;;;;;;;;;;;5008993;28;20309;-71
2021/08/30 12:08:59;;;;;;;;;;;;;;;;;;5008742;28;19939;-69
2021/08/30 12:11:27;;;;;;;;;;;;;;;;;;5007179;28;19925;-69
2021/08/30 12:14:00;;;;;;;;;;;;;;;;;;4999708;28;19969;-69
2021/08/30 12:16:27;;;;;;;;;;;;;;;;;;5007308;28;19932;-69
2021/08/30 12:18:54;;;;;;;;;;;;;;;;;;5001399;28;20075;-69
2021/08/30 12:21:21;;;;;;;;;;;;;;;;;;5006904;28;20571;-68
2021/08/30 12:23:48;;;;;;;;;;;;;;;;;;5000564;28;19933;-69
2021/08/30 12:26:15;;;;;;;;;;;;;;;;;;5002983;28;19925;-69
2021/08/30 12:28:43;;;;;;;;;;;;;;;;;;5003689;28;20086;-68
2021/08/30 12:31:10;;;;;;;;;;;;;;;;;;5006499;28;19977;-69
2021/08/30 12:33:37;;;;;;;;;;;;;;;;;;5009408;28;19925;-70
2021/08/30 12:36:04;;;;;;;;;;;;;;;;;;5006912;28;20012;-69
2021/08/30 12:38:31;;;;;;;;;;;;;;;;;;5004312;28;19925;-68
2021/08/30 12:40:58;;;;;;;;;;;;;;;;;;5003489;28;20027;-70
2021/08/30 12:43:25;;;;;;;;;;;;;;;;;;5004142;28;19929;-69
2021/08/30 12:45:52;;;;;;;;;;;;;;;;;;4996935;28;20254;-70
2021/08/30 12:48:19;;;;;;;;;;;;;;;;;;5001806;28;19972;-70
2021/08/30 12:50:46;;;;;;;;;;;;;;;;;;5007453;28;19925;-68
2021/08/30 12:53:13;;;;;;;;;;;;;;;;;;5003237;28;19926;-69
2021/08/30 12:55:40;;;;;;;;;;;;;;;;;;5008223;28;20012;-69
2021/08/30 12:58:07;;;;;;;;;;;;;;;;;;4999706;28;19934;-68
2021/08/30 13:00:34;;;;;;;;;;;;;;;;;;5006963;28;19935;-69
2021/08/30 13:03:01;;;;;;;;;;;;;;;;;;5004963;28;20301;-68
2021/08/30 13:05:28;;;;;;;;;;;;;;;;;;5007015;28;19936;-67
2021/08/30 13:07:55;;;;;;;;;;;;;;;;;;5009340;28;19969;-69
2021/08/30 13:10:22;;;;;;;;;;;;;;;;;;5008092;28;20012;-69
2021/08/30 13:12:49;;;;;;;;;;;;;;;;;;5009151;28;20008;-69
2021/08/30 13:15:16;;;;;;;;;;;;;;;;;;5006917;28;20021;-70
2021/08/30 13:17:43;;;;;;;;;;;;;;;;;;5011051;28;20341;-69
2021/08/30 13:20:10;;;;;;;;;;;;;;;;;;5006914;28;19972;-69
2021/08/30 13:22:37;;;;;;;;;;;;;;;;;;5008544;28;20309;-69
2021/08/30 13:25:04;;;;;;;;;;;;;;;;;;5008176;28;20377;-69
2021/08/30 13:27:32;;;;;;;;;;;;;;;;;;5005506;28;20412;-68
2021/08/30 13:29:59;;;;;;;;;;;;;;;;;;5004841;28;20751;-69
2021/08/30 13:32:26;;;;;;;;;;;;;;;;;;5010053;28;19926;-68
2021/08/30 13:34:53;;;;;;;;;;;;;;;;;;5010476;28;19929;-70
2021/08/30 13:37:20;;;;;;;;;;;;;;;;;;5011865;28;19930;-69
2021/08/30 13:39:47;;;;;;;;;;;;;;;;;;5007289;28;20436;-68
2021/08/30 13:42:14;;;;;;;;;;;;;;;;;;5010242;28;19929;-69
2021/08/30 13:44:41;;;;;;;;;;;;;;;;;;5008441;28;19933;-68
2021/08/30 13:47:07;;;;;;;;;;;;;;;;;;5009831;28;19951;-68
2021/08/30 13:49:34;;;;;;;;;;;;;;;;;;5011708;28;19926;-68
2021/08/30 13:52:01;;;;;;;;;;;;;;;;;;5007873;28;19936;-68
2021/08/30 13:54:28;;;;;;;;;;;;;;;;;;5008282;28;19936;-68
2021/08/30 13:56:55;;;;;;;;;;;;;;;;;;5008133;28;19926;-68
2021/08/30 13:59:22;;;;;;;;;;;;;;;;;;5005980;28;19930;-69
2021/08/30 14:01:49;;;;;;;;;;;;;;;;;;5008420;28;19925;-68
2021/08/30 14:04:16;;;;;;;;;;;;;;;;;;5002722;28;19937;-67
2021/08/30 14:06:43;;;;;;;;;;;;;;;;;;5007780;28;20214;-67
2021/08/30 14:09:10;;;;;;;;;;;;;;;;;;5002905;28;19926;-68
2021/08/30 14:11:37;;;;;;;;;;;;;;;;;;5002067;28;20312;-68
2021/08/30 14:14:04;;;;;;;;;;;;;;;;;;5002842;28;20381;-68
2021/08/30 14:16:31;;;;;;;;;;;;;;;;;;5004160;28;19926;-68
2021/08/30 14:18:58;;;;;;;;;;;;;;;;;;5009627;28;19929;-68
2021/08/30 14:21:25;;;;;;;;;;;;;;;;;;5007908;28;19925;-68
2021/08/30 14:23:52;;;;;;;;;;;;;;;;;;5005853;28;19944;-69
2021/08/30 14:26:19;;;;;;;;;;;;;;;;;;5006869;28;20317;-68
2021/08/30 14:28:45;;;;;;;;;;;;;;;;;;5009203;28;19925;-67
2021/08/30 14:31:12;;;;;;;;;;;;;;;;;;5005470;28;19925;-69
2021/08/30 14:33:39;;;;;;;;;;;;;;;;;;5006785;28;20286;-71
2021/08/30 14:36:06;;;;;;;;;;;;;;;;;;5008925;28;20008;-68
2021/08/30 14:38:33;;;;;;;;;;;;;;;;;;5001812;28;19961;-68
2021/08/30 14:41:00;;;;;;;;;;;;;;;;;;5002848;28;19929;-69
2021/08/30 14:43:27;;;;;;;;;;;;;;;;;;5009108;28;20583;-68
2021/08/30 14:45:54;;;;;;;;;;;;;;;;;;5008852;28;19929;-69
2021/08/30 14:48:21;;;;;;;;;;;;;;;;;;5005811;28;20340;-69
2021/08/30 14:50:48;;;;;;;;;;;;;;;;;;5008163;28;19979;-68
2021/08/30 14:53:16;;;;;;;;;;;;;;;;;;5003814;28;19925;-70
2021/08/30 14:55:43;;;;;;;;;;;;;;;;;;5005923;28;19929;-69
2021/08/30 14:58:10;;;;;;;;;;;;;;;;;;5001066;28;19932;-68
2021/08/30 15:00:37;;;;;;;;;;;;;;;;;;5002655;28;19926;-70
2021/08/30 15:03:04;;;;;;;;;;;;;;;;;;5006260;28;19957;-70
2021/08/30 15:05:31;;;;;;;;;;;;;;;;;;5006471;28;20024;-68
2021/08/30 15:07:58;;;;;;;;;;;;;;;;;;5000908;28;19930;-69
2021/08/30 15:10:25;;;;;;;;;;;;;;;;;;5004346;28;19926;-67
2021/08/30 15:12:53;;;;;;;;;;;;;;;;;;5003005;28;20024;-67
2021/08/30 15:15:20;;;;;;;;;;;;;;;;;;5009775;28;19925;-69
2021/08/30 15:17:47;;;;;;;;;;;;;;;;;;5003307;28;19933;-68
2021/08/30 15:20:14;;;;;;;;;;;;;;;;;;5003094;28;19932;-68
2021/08/30 15:22:41;;;;;;;;;;;;;;;;;;5005968;28;19933;-69
2021/08/30 15:25:08;;;;;;;;;;;;;;;;;;5000789;28;20420;-69
2021/08/30 15:27:38;;;;;;;;;;;;;;;;;;5006801;28;19926;-68
2021/08/30 15:30:05;;;;;;;;;;;;;;;;;;5001996;28;20393;-70
2021/08/30 15:32:32;;;;;;;;;;;;;;;;;;5002073;28;20414;-68
2021/08/30 15:35:00;;;;;;;;;;;;;;;;;;5001168;28;19932;-69
2021/08/30 15:37:27;;;;;;;;;;;;;;;;;;5002161;28;19926;-69
2021/08/30 15:39:54;;;;;;;;;;;;;;;;;;5001642;28;19936;-68
2021/08/30 15:42:21;;;;;;;;;;;;;;;;;;5007409;28;20024;-68
2021/08/30 15:44:48;;;;;;;;;;;;;;;;;;5001796;28;19936;-69
2021/08/30 15:47:16;;;;;;;;;;;;;;;;;;5003572;28;19926;-70
2021/08/30 15:49:43;;;;;;;;;;;;;;;;;;5006877;28;19932;-68
2021/08/30 15:52:10;;;;;;;;;;;;;;;;;;5006087;28;19932;-69
2021/08/30 15:54:37;;;;;;;;;;;;;;;;;;5006202;28;19968;-69
2021/08/30 15:57:04;;;;;;;;;;;;;;;;;;5004729;28;19926;-68
2021/08/30 15:59:31;;;;;;;;;;;;;;;;;;5001016;28;19933;-69
2021/08/30 16:01:58;;;;;;;;;;;;;;;;;;5001509;28;19947;-69
2021/08/30 16:04:25;;;;;;;;;;;;;;;;;;5005972;28;19930;-67
2021/08/30 16:06:52;;;;;;;;;;;;;;;;;;5003927;28;19932;-69
2021/08/30 16:09:19;;;;;;;;;;;;;;;;;;5005932;28;20105;-68
2021/08/30 16:11:46;;;;;;;;;;;;;;;;;;4998315;28;20048;-67
2021/08/30 16:14:13;;;;;;;;;;;;;;;;;;5003534;28;19925;-67
2021/08/30 16:16:40;;;;;;;;;;;;;;;;;;4998951;28;19952;-68
2021/08/30 16:19:07;;;;;;;;;;;;;;;;;;4999785;28;19926;-67
2021/08/30 16:21:34;;;;;;;;;;;;;;;;;;5002501;28;19951;-69
2021/08/30 16:24:04;;;;;;;;;;;;;;;;;;5005966;28;19932;-70
2021/08/30 16:26:31;;;;;;;;;;;;;;;;;;5008196;28;20357;-71
2021/08/30 16:28:58;;;;;;;;;;;;;;;;;;5001487;28;20461;-70
2021/08/30 16:31:25;;;;;;;;;;;;;;;;;;5006299;28;19930;-69
2021/08/30 16:33:52;;;;;;;;;;;;;;;;;;5004510;28;20374;-69
2021/08/30 16:36:23;;;;;;;;;;;;;;;;;;5004237;28;19936;-69
2021/08/30 16:38:50;;;;;;;;;;;;;;;;;;5002762;28;19929;-70
2021/08/30 16:41:17;;;;;;;;;;;;;;;;;;5007476;28;19947;-70
2021/08/30 16:43:44;;;;;;;;;;;;;;;;;;5008891;28;19926;-69
2021/08/30 16:46:11;;;;;;;;;;;;;;;;;;5007319;28;20354;-69
2021/08/30 16:48:38;;;;;;;;;;;;;;;;;;5002026;28;20019;-69